Terminal Aerodrome Forecast
Issued by NWS Topeka, KS

Home | Current Version | Previous Version | Graphics & Text | Print | Product List | Glossary On
Versions: 1 2 3 4 5 6 7 8 9 10 11 12 13 14 15 16 17 18 19 20 21 22 23 24 25 26 27
000
FTUS43 KTOP 231738
TAFTOP
TAF
KTOP 231738Z 2318/2418 36002KT 1/4SM FG VV003
     FM231900 10003KT 2SM BR BKN008
     FM232000 13008KT P6SM SCT150
     FM241600 16014G21KT P6SM SCT015=

USA.gov is the U.S. government's official web portal to all federal, state and local government web resources and services.